Time;durP1;ratioP1;P1;durP2;ratioP2;P2;SDS_P1;SDS_P2;PMS_P1;PMS_P2;Temp;Humidity;BMP_temperature;BMP_pressure;BME280_temperature;BME280_humidity;BME280_pressure;Samples;Min_cycle;Max_cycle;Signal;HPM_P1;HPM_P2
2023/01/24 00:00:49;;;;;;;1.65;1.55;;;;;;;19.83;34.64;104046.31;5053031;28;20049;-67
2023/01/24 00:03:15;;;;;;;1.67;1.58;;;;;;;19.73;34.66;104031.16;5059613;28;20052;-66
2023/01/24 00:05:43;;;;;;;1.67;1.58;;;;;;;19.82;34.65;104036.69;5056617;28;20097;-67
2023/01/24 00:08:12;;;;;;;1.63;1.50;;;;;;;19.77;34.77;104036.16;5057475;28;20071;-67
2023/01/24 00:10:37;;;;;;;1.67;1.58;;;;;;;19.82;34.74;104039.34;5060084;28;20033;-66
2023/01/24 00:13:03;;;;;;;2.10;1.90;;;;;;;19.87;34.59;104025.78;5056286;28;20047;-66
2023/01/24 00:15:29;;;;;;;1.80;1.70;;;;;;;19.77;34.81;104027.38;5059675;28;20048;-66
2023/01/24 00:17:55;;;;;;;1.90;1.80;;;;;;;19.80;34.67;104021.88;5057326;28;20041;-66
2023/01/24 00:20:21;;;;;;;1.63;1.52;;;;;;;19.75;34.82;104029.25;5055450;28;20044;-66
2023/01/24 00:22:46;;;;;;;2.05;1.67;;;;;;;19.68;34.81;104028.81;5056194;28;20693;-66
2023/01/24 00:25:12;;;;;;;2.25;1.73;;;;;;;19.76;34.75;104031.81;5056348;28;20037;-66
2023/01/24 00:27:37;;;;;;;1.60;1.48;;;;;;;19.76;34.71;104030.97;5058474;28;20101;-66
2023/01/24 00:30:04;;;;;;;1.75;1.65;;;;;;;19.74;34.86;104024.91;5057141;28;20390;-66
2023/01/24 00:32:30;;;;;;;2.30;1.77;;;;;;;19.75;34.68;104022.19;5059957;28;20032;-66
2023/01/24 00:34:56;;;;;;;1.80;1.58;;;;;;;19.63;35.03;104028.28;5056303;28;20074;-66
2023/01/24 00:37:23;;;;;;;1.95;1.73;;;;;;;19.69;34.86;104030.50;5060154;28;20032;-66
2023/01/24 00:39:49;;;;;;;1.85;1.67;;;;;;;19.66;34.94;104020.16;5060948;28;20773;-66
2023/01/24 00:42:14;;;;;;;1.90;1.75;;;;;;;19.70;34.96;104023.44;5064777;28;20044;-66
2023/01/24 00:44:40;;;;;;;2.00;1.80;;;;;;;19.61;35.02;104027.53;5053395;28;20044;-66
2023/01/24 00:47:05;;;;;;;1.70;1.60;;;;;;;19.66;34.97;104022.78;5060037;28;20094;-66
2023/01/24 00:49:31;;;;;;;1.70;1.60;;;;;;;19.66;34.90;104014.00;5059930;28;20159;-66
2023/01/24 00:51:57;;;;;;;2.25;1.83;;;;;;;19.58;34.93;104023.31;5057051;28;20056;-66
2023/01/24 00:54:22;;;;;;;2.10;1.90;;;;;;;19.64;35.00;104019.41;5060189;28;20139;-66
2023/01/24 00:56:48;;;;;;;2.10;1.90;;;;;;;19.65;34.97;104013.16;5076444;28;20479;-66
2023/01/24 00:59:14;;;;;;;2.40;1.85;;;;;;;19.65;34.95;104007.88;5064729;28;20036;-67
2023/01/24 01:01:42;;;;;;;2.15;1.95;;;;;;;19.64;35.02;104015.91;5055084;28;20127;-66
2023/01/24 01:04:08;;;;;;;1.98;1.77;;;;;;;19.66;34.95;104017.50;5058430;28;20132;-66
2023/01/24 01:06:34;;;;;;;1.60;1.50;;;;;;;19.65;34.90;104004.38;5059678;28;20119;-67
2023/01/24 01:09:00;;;;;;;1.70;1.60;;;;;;;19.61;34.99;104001.09;5056712;28;20043;-66
2023/01/24 01:11:25;;;;;;;1.50;1.40;;;;;;;19.60;35.11;104013.47;5053415;28;20237;-66
2023/01/24 01:13:54;;;;;;;1.70;1.60;;;;;;;19.61;34.96;104004.59;5055854;28;20565;-66
2023/01/24 01:16:23;;;;;;;1.95;1.75;;;;;;;19.64;34.88;104010.63;5056738;28;21019;-66
2023/01/24 01:18:52;;;;;;;2.15;1.90;;;;;;;19.59;35.01;104011.78;5058890;28;20039;-66
2023/01/24 01:21:20;;;;;;;1.75;1.65;;;;;;;19.63;35.05;104011.56;5056048;28;20028;-66
2023/01/24 01:23:46;;;;;;;1.92;1.83;;;;;;;19.63;35.07;104009.78;5056798;28;20041;-66
2023/01/24 01:26:18;;;;;;;1.58;1.48;;;;;;;19.63;35.07;104008.94;5051662;28;20128;-66
2023/01/24 01:28:44;;;;;;;1.95;1.75;;;;;;;19.66;34.85;104009.56;5069711;28;20098;-66
2023/01/24 01:31:09;;;;;;;2.08;1.88;;;;;;;19.60;35.06;104010.00;5054589;28;20048;-66
2023/01/24 01:33:35;;;;;;;2.00;1.80;;;;;;;19.61;34.99;104011.69;5056486;28;20721;-66
2023/01/24 01:36:00;;;;;;;1.90;1.70;;;;;;;19.61;34.99;104012.53;5055984;28;20470;-66
2023/01/24 01:38:27;;;;;;;3.13;2.08;;;;;;;19.60;35.01;104010.84;5054009;28;20033;-66
2023/01/24 01:40:54;;;;;;;1.85;1.75;;;;;;;19.59;35.09;104011.78;5065932;28;20423;-66
2023/01/24 01:43:22;;;;;;;2.33;1.90;;;;;;;19.58;35.13;104027.75;5060937;28;20763;-66
2023/01/24 01:45:49;;;;;;;1.63;1.52;;;;;;;19.58;34.98;104025.09;5058130;28;21949;-66
2023/01/24 01:48:34;;;;;;;1.60;1.50;;;;;;;19.48;35.18;104024.81;5059933;28;20032;-66
2023/01/24 01:51:16;;;;;;;1.90;1.80;;;;;;;19.53;35.12;104025.34;5050921;28;20494;-66
2023/01/24 01:54:17;;;;;;;2.08;1.88;;;;;;;19.58;35.10;104030.41;5062966;28;20484;-66
2023/01/24 01:56:52;;;;;;;2.00;1.70;;;;;;;19.50;35.11;104030.00;5051996;28;20044;-66
2023/01/24 01:59:25;;;;;;;1.83;1.73;;;;;;;19.51;35.05;104019.31;5062337;28;20087;-67
2023/01/24 02:01:52;;;;;;;2.20;2.00;;;;;;;19.53;35.06;104013.94;5062346;28;20051;-66
2023/01/24 02:04:22;;;;;;;2.00;1.80;;;;;;;19.55;35.13;104020.84;5055433;28;20065;-66
2023/01/24 02:06:54;;;;;;;;;;;;;;;19.52;35.15;104022.81;5055108;28;20033;-66
2023/01/24 02:09:26;;;;;;;2.13;1.90;;;;;;;19.54;35.16;104011.22;5055362;28;19921;-67
2023/01/24 02:11:54;;;;;;;2.13;1.67;;;;;;;19.50;35.17;104015.00;5064137;28;20032;-66
2023/01/24 02:17:07;;;;;;;6.47;2.13;;;;;;;19.52;35.15;104013.09;5056778;28;20438;-67
2023/01/24 02:20:10;;;;;;;2.10;1.85;;;;;;;19.53;35.10;104013.94;5057642;28;20120;-66
2023/01/24 02:22:36;;;;;;;1.85;1.73;;;;;;;19.51;35.17;104014.03;5056756;28;20135;-67
2023/01/24 02:25:26;;;;;;;1.83;1.73;;;;;;;19.48;35.24;104008.09;5057194;28;20035;-67
2023/01/24 02:27:52;;;;;;;2.08;1.88;;;;;;;19.56;35.21;104004.03;5055153;28;20455;-67
2023/01/24 02:30:18;;;;;;;1.80;1.70;;;;;;;19.48;35.19;103998.38;5052176;28;20071;-67
2023/01/24 02:32:43;;;;;;;2.20;1.83;;;;;;;19.47;35.19;104003.78;5057123;28;20130;-66
2023/01/24 02:35:23;;;;;;;1.92;1.73;;;;;;;19.43;35.32;104005.78;5055342;28;20043;-66
2023/01/24 02:37:49;;;;;;;;;;;;;;;19.48;35.37;103995.75;5056375;28;20063;-67
2023/01/24 02:40:17;;;;;;;2.45;2.08;;;;;;;19.49;35.20;103999.22;5052845;28;19924;-66
2023/01/24 02:42:43;;;;;;;1.80;1.70;;;;;;;19.52;35.26;103997.22;5053749;28;20037;-67
2023/01/24 02:45:14;;;;;;;2.03;1.83;;;;;;;19.52;35.05;104002.50;5054083;28;20047;-66
2023/01/24 02:47:48;;;;;;;1.75;1.65;;;;;;;19.46;35.22;104004.72;5049065;28;20036;-66
2023/01/24 02:50:16;;;;;;;1.85;1.73;;;;;;;19.39;35.41;104012.22;5053789;28;20074;-66
2023/01/24 02:55:25;;;;;;;1.75;1.63;;;;;;;19.51;35.16;104013.19;5071656;28;20546;-66
2023/01/24 02:58:06;;;;;;;1.63;1.52;;;;;;;19.37;35.43;104013.25;5056582;28;20055;-66
2023/01/24 03:00:41;;;;;;;1.70;1.60;;;;;;;19.40;35.42;104007.78;5067018;28;20052;-66
2023/01/24 03:03:10;;;;;;;1.77;1.67;;;;;;;19.43;35.40;104010.22;5057052;28;20056;-67
2023/01/24 03:05:46;;;;;;;1.70;1.60;;;;;;;19.38;35.52;104007.84;5055462;28;20102;-66
2023/01/24 03:08:14;;;;;;;1.70;1.60;;;;;;;19.40;35.48;104011.25;5054855;28;20025;-67
2023/01/24 03:10:40;;;;;;;1.70;1.60;;;;;;;19.42;35.38;104004.09;5056798;28;20110;-67
2023/01/24 03:35:01;;;;;;;2.10;1.90;;;;;;;19.41;35.43;104002.38;5058120;28;20197;-66
2023/01/24 03:40:16;;;;;;;2.10;1.90;;;;;;;19.30;35.45;104003.06;5057886;28;20124;-67
2023/01/24 03:42:47;;;;;;;1.80;1.70;;;;;;;19.31;35.48;104003.91;5057430;28;20033;-67
2023/01/24 03:45:16;;;;;;;2.00;1.80;;;;;;;19.40;35.33;104005.13;5061718;28;20430;-67
2023/01/24 03:47:57;;;;;;;1.65;1.55;;;;;;;19.30;35.58;104005.72;5062010;28;20371;-67
2023/01/24 03:53:12;;;;;;;1.77;1.67;;;;;;;19.40;35.54;104013.06;5061280;28;20028;-67
2023/01/24 03:55:40;;;;;;;1.67;1.58;;;;;;;19.37;35.40;104010.59;5081296;28;20089;-67
2023/01/24 03:58:08;;;;;;;2.10;1.90;;;;;;;19.35;35.51;104017.78;5062709;28;20113;-66
2023/01/24 04:00:34;;;;;;;3.50;2.08;;;;;;;19.31;35.60;104017.97;5062899;28;20414;-67
2023/01/24 04:03:05;;;;;;;1.70;1.60;;;;;;;19.25;35.57;104004.34;5065729;28;20393;-67
2023/01/24 04:05:33;;;;;;;1.83;1.73;;;;;;;19.29;35.74;104004.03;5060440;28;20240;-66
2023/01/24 04:07:59;;;;;;;2.13;1.92;;;;;;;19.30;35.39;104010.16;5055859;28;20383;-67
2023/01/24 04:10:26;;;;;;;1.95;1.63;;;;;;;19.33;35.27;104020.53;5062264;28;20033;-66
2023/01/24 04:12:54;;;;;;;2.03;1.80;;;;;;;19.30;35.38;104008.34;5058447;28;20390;-67
2023/01/24 04:15:38;;;;;;;1.85;1.73;;;;;;;19.27;35.67;104020.94;5061042;28;20394;-66
2023/01/24 04:18:37;;;;;;;1.80;1.65;;;;;;;19.28;35.61;104017.34;5057666;28;20687;-66
2023/01/24 04:21:03;;;;;;;2.22;1.70;;;;;;;19.26;35.46;104021.88;5073699;28;20043;-67
2023/01/24 04:23:30;;;;;;;1.90;1.77;;;;;;;19.23;35.76;104015.00;5058760;28;20059;-66
2023/01/24 04:25:57;;;;;;;2.00;1.80;;;;;;;19.23;35.65;104020.28;5057646;28;20367;-67
2023/01/24 04:28:25;;;;;;;1.75;1.65;;;;;;;19.23;35.64;104022.09;5073194;28;20043;-67
2023/01/24 04:30:59;;;;;;;1.70;1.60;;;;;;;19.21;35.67;104019.53;5059410;28;20045;-67
2023/01/24 04:33:40;;;;;;;2.00;1.80;;;;;;;19.17;35.64;104025.94;5056291;28;20033;-67
2023/01/24 04:36:06;;;;;;;2.55;1.90;;;;;;;19.27;35.53;104026.22;5070186;28;20074;-67
2023/01/24 04:38:32;;;;;;;2.08;1.88;;;;;;;19.27;35.49;104028.84;5042503;28;20055;-67
2023/01/24 04:41:14;;;;;;;1.77;1.67;;;;;;;19.22;35.59;104029.16;5053139;28;20569;-66
2023/01/24 04:43:42;;;;;;;1.83;1.73;;;;;;;19.25;35.76;104030.75;5058286;28;20040;-66
2023/01/24 04:46:07;;;;;;;2.20;2.00;;;;;;;19.23;35.58;104036.13;5057478;28;20563;-66
2023/01/24 04:48:48;;;;;;;2.33;1.85;;;;;;;19.12;35.78;104033.31;5056781;28;20082;-66
2023/01/24 04:51:13;;;;;;;2.08;1.88;;;;;;;19.27;35.83;104027.06;5056856;28;20670;-67
2023/01/24 04:53:41;;;;;;;1.92;1.70;;;;;;;19.25;35.68;104026.31;5054130;28;20068;-66
2023/01/24 04:56:07;;;;;;;1.80;1.70;;;;;;;19.20;35.70;104030.19;5059226;28;20032;-66
2023/01/24 04:58:34;;;;;;;1.90;1.80;;;;;;;19.29;35.60;104030.44;5058357;28;20036;-66
2023/01/24 05:01:01;;;;;;;1.98;1.80;;;;;;;19.17;35.79;104041.78;5058362;28;20041;-66
2023/01/24 05:03:29;;;;;;;2.22;2.03;;;;;;;19.17;35.68;104038.31;5055620;28;20148;-66
2023/01/24 05:05:55;;;;;;;1.80;1.70;;;;;;;19.19;35.74;104031.97;5057088;28;20496;-66
2023/01/24 05:08:21;;;;;;;2.10;1.90;;;;;;;19.15;35.77;104027.84;5056093;28;20040;-66
2023/01/24 05:10:47;;;;;;;2.13;1.90;;;;;;;19.09;35.94;104022.09;5058783;28;20049;-66
2023/01/24 05:13:12;;;;;;;2.05;1.88;;;;;;;19.15;35.77;104033.13;5054362;28;20940;-66
2023/01/24 05:15:38;;;;;;;2.20;2.00;;;;;;;19.03;35.90;104031.28;5058339;28;20139;-66
2023/01/24 05:18:06;;;;;;;2.47;2.10;;;;;;;19.03;36.00;104026.00;5073430;28;20064;-66
2023/01/24 05:20:32;;;;;;;2.00;1.90;;;;;;;19.10;35.86;104015.88;5057809;28;20036;-67
2023/01/24 05:22:58;;;;;;;2.28;2.08;;;;;;;19.06;35.95;104025.78;5058252;28;20040;-66
2023/01/24 05:25:25;;;;;;;2.00;1.80;;;;;;;19.10;35.83;104021.16;5055896;28;20791;-66
2023/01/24 05:27:52;;;;;;;2.45;2.17;;;;;;;19.06;35.90;104017.88;5056010;28;20036;-66
2023/01/24 05:30:19;;;;;;;2.10;1.90;;;;;;;19.08;35.89;104020.41;5057699;28;20033;-67
2023/01/24 05:32:48;;;;;;;1.92;1.80;;;;;;;19.14;35.66;104018.22;5056354;28;20616;-67
2023/01/24 05:35:14;;;;;;;2.25;2.05;;;;;;;18.95;36.14;104013.25;5057016;28;20052;-66
2023/01/24 05:37:40;;;;;;;2.78;1.80;;;;;;;19.01;35.96;104019.94;5054989;28;20150;-66
2023/01/24 05:40:08;;;;;;;2.20;2.00;;;;;;;18.98;35.87;104014.84;5056101;28;20047;-66
2023/01/24 05:42:34;;;;;;;1.85;1.75;;;;;;;19.07;35.93;104016.09;5052258;28;20037;-67
2023/01/24 05:44:59;;;;;;;1.98;1.88;;;;;;;18.97;36.04;104015.81;5053189;28;20044;-66
2023/01/24 05:47:25;;;;;;;2.30;2.10;;;;;;;18.94;36.05;104016.00;5056332;28;20028;-66
2023/01/24 05:49:50;;;;;;;2.17;2.00;;;;;;;19.04;35.84;104018.91;5055447;28;20119;-66
2023/01/24 05:52:20;;;;;;;2.38;2.17;;;;;;;19.00;35.92;104018.25;5055549;28;20044;-66
2023/01/24 05:54:50;;;;;;;2.47;2.17;;;;;;;19.00;35.94;104019.09;5056596;28;20068;-66
2023/01/24 05:57:28;;;;;;;2.30;2.10;;;;;;;18.90;35.92;104014.50;5051932;28;20363;-67
2023/01/24 06:00:25;;;;;;;2.20;2.00;;;;;;;18.93;35.77;104019.59;5033310;28;20752;-66
2023/01/24 06:03:10;;;;;;;2.42;2.20;;;;;;;18.96;35.86;104016.75;5067136;28;20067;-66
2023/01/24 06:05:35;;;;;;;2.30;2.10;;;;;;;18.88;36.11;104019.03;5059886;28;20040;-66
2023/01/24 06:08:01;;;;;;;1.92;1.83;;;;;;;18.91;35.84;104017.03;5061618;28;20032;-66
2023/01/24 06:10:27;;;;;;;2.17;1.98;;;;;;;18.88;36.00;104019.88;5059474;28;20044;-66
2023/01/24 06:13:01;;;;;;;2.20;1.90;;;;;;;18.89;35.69;104026.00;5060048;28;20033;-66
2023/01/24 06:15:26;;;;;;;2.20;2.00;;;;;;;18.93;35.83;104025.72;5057699;28;20098;-66
2023/01/24 06:17:53;;;;;;;2.13;1.92;;;;;;;18.85;35.98;104025.38;5055007;28;20028;-66
2023/01/24 06:20:19;;;;;;;2.42;2.22;;;;;;;18.86;35.86;104032.34;5053632;28;20033;-66
2023/01/24 06:22:51;;;;;;;2.15;1.90;;;;;;;18.93;35.92;104027.50;5058051;28;20066;-67
2023/01/24 06:25:21;;;;;;;2.33;2.00;;;;;;;18.85;36.15;104035.03;5057582;28;20062;-66
2023/01/24 06:27:48;;;;;;;2.35;2.15;;;;;;;18.82;36.19;104035.25;5055195;28;21203;-66
2023/01/24 06:30:14;;;;;;;2.33;2.10;;;;;;;18.89;35.94;104040.06;5056070;28;20041;-66
2023/01/24 06:33:08;;;;;;;2.30;2.10;;;;;;;18.90;36.10;104044.41;5051752;28;20462;-67
2023/01/24 06:35:42;;;;;;;2.20;2.00;;;;;;;18.98;35.87;104042.09;5053134;28;20366;-66
2023/01/24 06:38:19;;;;;;;2.08;1.90;;;;;;;20.06;34.30;104042.13;5059347;28;20040;-66
2023/01/24 06:40:45;;;;;;;2.30;2.10;;;;;;;21.55;31.84;104045.75;5056374;28;20121;-66
2023/01/24 06:43:10;;;;;;;1.90;1.80;;;;;;;22.27;30.63;104043.84;5056639;28;20045;-66
2023/01/24 06:45:36;;;;;;;2.10;1.88;;;;;;;22.77;30.18;104041.66;5053720;28;20048;-66
2023/01/24 06:48:02;;;;;;;1.98;1.88;;;;;;;22.79;30.25;104050.34;5057185;28;20051;-67
2023/01/24 06:50:31;;;;;;;2.05;1.88;;;;;;;22.66;30.30;104045.19;5056478;28;20044;-66
2023/01/24 06:52:57;;;;;;;1.77;1.67;;;;;;;22.45;30.60;104047.72;5059694;28;20040;-66
2023/01/24 06:55:22;;;;;;;1.85;1.70;;;;;;;22.36;30.91;104043.13;5055315;28;20068;-66
2023/01/24 06:57:54;;;;;;;2.13;1.92;;;;;;;22.26;30.93;104048.31;5055196;28;20135;-66
2023/01/24 07:00:20;;;;;;;1.90;1.80;;;;;;;22.14;31.57;104048.41;5058258;28;20482;-66
2023/01/24 07:02:45;;;;;;;1.98;1.83;;;;;;;22.02;31.70;104055.44;5060870;28;20098;-66
2023/01/24 07:05:11;;;;;;;1.90;1.80;;;;;;;21.86;31.64;104047.78;5059094;28;20487;-66
2023/01/24 07:07:37;;;;;;;2.20;2.00;;;;;;;21.71;32.29;104039.19;5061450;28;20060;-66
2023/01/24 07:10:03;;;;;;;2.00;1.90;;;;;;;21.65;32.13;104049.41;5058459;28;20482;-66
2023/01/24 07:12:29;;;;;;;1.92;1.83;;;;;;;21.58;32.59;104049.03;5061416;28;20036;-66
2023/01/24 07:14:54;;;;;;;1.75;1.65;;;;;;;21.41;32.67;104052.91;5057807;28;20047;-66
2023/01/24 07:17:20;;;;;;;2.10;1.90;;;;;;;21.35;32.56;104048.06;5059836;28;20044;-66
2023/01/24 07:19:45;;;;;;;1.75;1.65;;;;;;;21.29;32.88;104055.63;5055892;28;20048;-66
2023/01/24 07:22:12;;;;;;;1.98;1.88;;;;;;;21.11;32.92;104053.31;5060949;28;20040;-66
2023/01/24 07:24:38;;;;;;;2.15;1.95;;;;;;;20.94;33.30;104058.97;5055390;28;20049;-66
2023/01/24 07:27:04;;;;;;;2.05;1.90;;;;;;;21.00;33.20;104058.50;5059483;28;20040;-66
2023/01/24 07:29:29;;;;;;;2.30;1.90;;;;;;;20.83;33.47;104056.25;5060829;28;20085;-66
2023/01/24 07:31:55;;;;;;;2.20;2.00;;;;;;;20.77;33.79;104064.59;5058088;28;20024;-66
2023/01/24 07:34:21;;;;;;;2.47;2.25;;;;;;;20.76;33.76;104073.50;5060456;28;20942;-67
2023/01/24 07:36:47;;;;;;;2.30;2.00;;;;;;;20.54;34.07;104060.09;5059815;28;20136;-66
2023/01/24 07:39:13;;;;;;;2.00;1.80;;;;;;;20.47;34.27;104071.09;5059537;28;20462;-66
2023/01/24 07:41:40;;;;;;;2.28;1.95;;;;;;;20.41;34.41;104075.94;5055359;28;20966;-66
2023/01/24 07:44:06;;;;;;;2.40;2.20;;;;;;;20.23;34.63;104083.31;5060570;28;20028;-66
2023/01/24 07:46:32;;;;;;;2.00;1.80;;;;;;;20.32;34.61;104081.84;5056298;28;20364;-66
2023/01/24 07:48:58;;;;;;;1.85;1.75;;;;;;;20.28;34.58;104083.84;5058402;28;20048;-66
2023/01/24 07:51:24;;;;;;;2.10;1.90;;;;;;;20.24;34.55;104085.00;5056555;28;20076;-66
2023/01/24 07:53:49;;;;;;;2.22;2.03;;;;;;;20.16;34.86;104085.53;5054742;28;20055;-66
2023/01/24 07:56:16;;;;;;;2.20;2.00;;;;;;;20.20;34.66;104080.88;5060713;28;20055;-66
2023/01/24 07:58:42;;;;;;;2.00;1.85;;;;;;;20.12;34.77;104085.84;5060490;28;20041;-66
2023/01/24 08:01:08;;;;;;;2.30;2.10;;;;;;;21.00;33.34;104087.66;5062037;28;20046;-66
2023/01/24 08:03:33;;;;;;;2.25;2.05;;;;;;;21.78;32.34;104089.13;5060750;28;20044;-66
2023/01/24 08:05:59;;;;;;;3.22;2.03;;;;;;;22.30;31.21;104084.28;5057852;28;20037;-67
2023/01/24 08:08:25;;;;;;;2.08;1.88;;;;;;;22.29;31.47;104092.34;5060530;28;20047;-66
2023/01/24 08:10:50;;;;;;;2.40;2.00;;;;;;;22.21;31.50;104098.22;5057006;28;20056;-66
2023/01/24 08:13:16;;;;;;;2.45;1.88;;;;;;;22.06;31.50;104096.72;5060829;28;20037;-66
2023/01/24 08:15:41;;;;;;;2.28;2.00;;;;;;;21.98;31.65;104097.28;5055689;28;20557;-66
2023/01/24 08:18:07;;;;;;;2.10;1.90;;;;;;;22.00;32.10;104105.13;5057033;28;20044;-67
2023/01/24 08:20:32;;;;;;;1.98;1.88;;;;;;;21.88;31.95;104093.63;5055915;28;20043;-67
2023/01/24 08:22:58;;;;;;;1.98;1.88;;;;;;;21.87;32.18;104107.00;5057884;28;20161;-66
2023/01/24 08:25:30;;;;;;;2.00;1.88;;;;;;;21.69;32.58;104110.06;5057523;28;20052;-66
2023/01/24 08:27:55;;;;;;;2.28;2.08;;;;;;;21.64;32.57;104111.38;5057920;28;20036;-66
2023/01/24 08:30:21;;;;;;;2.47;1.90;;;;;;;21.54;32.71;104111.19;5054285;28;20047;-66
2023/01/24 08:32:46;;;;;;;2.30;2.10;;;;;;;21.54;32.60;104118.28;5057984;28;20036;-66
2023/01/24 08:35:12;;;;;;;2.05;1.92;;;;;;;21.50;32.66;104108.88;5050577;28;20029;-66
2023/01/24 08:37:37;;;;;;;2.38;2.17;;;;;;;21.33;33.18;104116.25;5058020;28;20036;-66
2023/01/24 08:40:03;;;;;;;2.17;1.98;;;;;;;21.25;33.24;104120.41;5055101;28;20051;-66
2023/01/24 08:42:29;;;;;;;1.90;1.80;;;;;;;21.13;33.46;104115.00;5059892;28;20378;-66
2023/01/24 08:44:55;;;;;;;2.25;2.05;;;;;;;21.06;33.42;104123.50;5057554;28;20048;-66
2023/01/24 08:47:20;;;;;;;2.15;1.95;;;;;;;20.97;33.51;104122.31;5053451;28;20090;-66
2023/01/24 08:49:46;;;;;;;2.10;1.95;;;;;;;20.77;33.87;104117.56;5058149;28;21060;-67
2023/01/24 08:52:11;;;;;;;1.98;1.85;;;;;;;20.72;34.15;104117.06;5058487;28;20082;-66
2023/01/24 08:54:37;;;;;;;2.20;2.00;;;;;;;20.71;34.03;104126.81;5053670;28;20036;-66
2023/01/24 08:57:04;;;;;;;2.35;2.15;;;;;;;20.43;34.56;104133.13;5057650;28;20473;-66
2023/01/24 08:59:29;;;;;;;1.95;1.83;;;;;;;20.31;34.71;104136.59;5061220;28;20640;-66
2023/01/24 09:01:55;;;;;;;2.20;2.00;;;;;;;20.23;34.79;104133.59;5055907;28;20048;-66
2023/01/24 09:04:20;;;;;;;2.20;2.00;;;;;;;20.27;34.73;104135.06;5053474;28;20056;-66
2023/01/24 09:06:46;;;;;;;2.30;2.10;;;;;;;20.29;34.65;104137.63;5055600;28;20081;-66
2023/01/24 09:09:12;;;;;;;2.17;1.95;;;;;;;20.30;34.45;104147.28;5053700;28;20087;-66
2023/01/24 09:11:38;;;;;;;2.60;2.35;;;;;;;20.27;34.69;104139.53;5055872;28;20055;-66
2023/01/24 09:14:03;;;;;;;2.00;1.90;;;;;;;20.27;34.79;104136.88;5056160;28;20064;-66
2023/01/24 09:16:29;;;;;;;2.20;2.00;;;;;;;20.32;34.54;104135.63;5052773;28;20370;-66
2023/01/24 09:18:55;;;;;;;2.17;1.98;;;;;;;20.25;34.58;104138.78;5055446;28;20047;-66
2023/01/24 09:21:21;;;;;;;2.20;2.00;;;;;;;20.18;34.71;104135.72;5056669;28;20139;-66
2023/01/24 09:23:46;;;;;;;2.03;1.92;;;;;;;20.17;34.76;104144.59;5052749;28;20421;-66
2023/01/24 09:26:12;;;;;;;2.35;2.08;;;;;;;20.17;34.61;104140.16;5051872;28;20039;-66
2023/01/24 09:28:39;;;;;;;2.30;2.10;;;;;;;20.18;34.61;104141.84;5054559;28;20386;-66
2023/01/24 09:31:07;;;;;;;2.13;1.92;;;;;;;20.23;34.55;104141.53;5052637;28;20036;-66
2023/01/24 09:33:33;;;;;;;2.40;2.20;;;;;;;21.05;33.13;104135.06;5051134;28;20047;-66
2023/01/24 09:36:01;;;;;;;2.15;1.95;;;;;;;21.71;31.95;104137.31;5053118;28;20139;-66
2023/01/24 09:38:30;;;;;;;2.28;2.08;;;;;;;22.15;31.50;104138.53;5053064;28;20032;-66
2023/01/24 09:41:24;;;;;;;2.53;2.33;;;;;;;22.11;31.31;104138.88;5053419;28;20049;-66
2023/01/24 09:43:52;;;;;;;2.30;2.10;;;;;;;22.02;31.29;104143.00;5054965;28;20060;-66
2023/01/24 09:46:27;;;;;;;2.30;2.10;;;;;;;21.96;31.57;104138.19;5051745;28;20433;-66
2023/01/24 09:49:33;;;;;;;2.40;2.20;;;;;;;21.83;31.85;104140.88;5048204;28;20040;-66
2023/01/24 09:51:59;;;;;;;2.10;2.00;;;;;;;21.75;31.89;104139.78;5046110;28;20755;-66
2023/01/24 09:54:45;;;;;;;2.15;2.00;;;;;;;21.63;31.92;104144.16;5057217;28;20047;-66
2023/01/24 09:57:51;;;;;;;2.50;2.30;;;;;;;21.48;32.13;104140.81;5042325;28;20061;-66
2023/01/24 10:00:22;;;;;;;2.38;2.17;;;;;;;21.46;32.26;104137.41;5023263;28;20055;-66
2023/01/24 10:02:49;;;;;;;2.35;2.15;;;;;;;21.33;32.29;104137.44;5055319;28;20076;-66
2023/01/24 10:05:15;;;;;;;2.58;2.38;;;;;;;21.27;32.62;104129.94;5052821;28;20098;-66
2023/01/24 10:07:53;;;;;;;2.50;2.30;;;;;;;21.09;32.73;104136.53;5058034;28;20064;-66
2023/01/24 10:10:37;;;;;;;2.70;2.50;;;;;;;21.05;33.02;104138.56;5055595;28;20431;-66
2023/01/24 10:13:36;;;;;;;2.50;2.30;;;;;;;20.88;33.34;104138.03;5056049;28;20166;-66
2023/01/24 10:16:28;;;;;;;2.60;2.40;;;;;;;20.65;33.61;104129.88;5054095;28;20036;-66
2023/01/24 10:18:56;;;;;;;2.70;2.50;;;;;;;20.67;33.59;104127.13;5053670;28;20064;-66
2023/01/24 10:21:41;;;;;;;2.50;2.30;;;;;;;20.49;33.83;104119.50;5054708;28;20166;-66
2023/01/24 10:24:12;;;;;;;2.80;2.40;;;;;;;20.40;34.04;104129.81;5053607;28;20126;-66
2023/01/24 10:26:49;;;;;;;2.63;2.42;;;;;;;20.28;34.16;104120.03;5050768;28;20327;-66
2023/01/24 10:29:21;;;;;;;2.55;2.20;;;;;;;20.23;34.18;104123.84;5056097;28;20378;-66
2023/01/24 10:31:56;;;;;;;2.70;2.50;;;;;;;20.17;34.32;104113.69;5056020;28;20044;-66
2023/01/24 10:34:35;;;;;;;2.72;2.47;;;;;;;20.08;34.43;104113.44;5049071;28;20086;-66
2023/01/24 10:37:14;;;;;;;2.40;2.20;;;;;;;20.08;34.48;104118.75;5057912;28;20037;-66
2023/01/24 10:39:40;;;;;;;2.85;2.47;;;;;;;20.32;34.18;104103.03;5052122;28;20043;-66
2023/01/24 10:42:32;;;;;;;2.40;2.20;;;;;;;20.29;34.12;104112.03;5055763;28;20041;-66
2023/01/24 10:45:29;;;;;;;2.85;2.55;;;;;;;20.25;34.11;104107.03;5056603;28;20382;-67
2023/01/24 10:48:10;;;;;;;2.95;2.45;;;;;;;20.85;33.28;104098.53;5002618;28;20165;-64
2023/01/24 10:50:44;;;;;;;2.60;2.40;;;;;;;21.21;32.87;104095.06;5054786;28;20059;-64
2023/01/24 10:53:22;;;;;;;2.45;2.25;;;;;;;21.62;32.14;104097.38;5057632;28;20417;-63
2023/01/24 10:55:48;;;;;;;2.53;2.33;;;;;;;22.63;31.01;104101.22;5063353;28;20049;-62
2023/01/24 10:58:16;;;;;;;2.75;2.42;;;;;;;23.86;29.20;104089.53;5056234;28;20047;-61
2023/01/24 11:00:43;;;;;;;2.58;2.33;;;;;;;24.10;28.81;104090.16;5058016;28;20051;-62
2023/01/24 11:03:40;;;;;;;2.30;2.10;;;;;;;24.13;28.95;104092.56;5024433;28;20140;-62
2023/01/24 11:06:25;;;;;;;2.35;2.13;;;;;;;24.07;29.22;104091.25;5045479;28;20058;-63
2023/01/24 11:09:00;;;;;;;2.60;2.40;;;;;;;23.85;29.41;104078.03;5055298;28;20106;-64
2023/01/24 11:11:30;;;;;;;2.60;2.20;;;;;;;23.66;29.98;104092.03;5054066;28;20032;-62
2023/01/24 11:13:58;;;;;;;4.13;2.40;;;;;;;23.56;30.05;104095.56;5055385;28;20048;-63
2023/01/24 11:16:32;;;;;;;3.17;2.10;;;;;;;23.50;30.28;104095.06;5058501;28;20482;-64
2023/01/24 11:18:59;;;;;;;2.63;2.42;;;;;;;23.28;30.50;104100.47;5041577;28;20110;-61
2023/01/24 11:21:26;;;;;;;2.55;2.30;;;;;;;23.11;30.72;104093.84;5044959;28;20032;-62
2023/01/24 11:24:01;;;;;;;2.83;2.60;;;;;;;23.05;30.94;104102.31;5053991;28;20058;-64
2023/01/24 11:26:29;;;;;;;2.50;2.30;;;;;;;23.03;31.15;104095.44;5058023;28;20432;-62
2023/01/24 11:29:14;;;;;;;2.40;2.20;;;;;;;22.97;31.03;104102.06;5056993;28;20071;-62
2023/01/24 11:32:03;;;;;;;2.70;2.30;;;;;;;22.90;31.27;104088.44;5055704;28;20052;-61
2023/01/24 11:34:51;;;;;;;2.40;2.20;;;;;;;22.86;31.33;104088.81;5003681;28;20947;-62
2023/01/24 11:37:32;;;;;;;4.75;2.30;;;;;;;22.86;31.56;104083.50;5051225;28;20043;-63
2023/01/24 11:40:06;;;;;;;2.53;2.33;;;;;;;22.82;31.55;104076.75;5059622;28;20147;-61
2023/01/24 11:43:00;;;;;;;2.92;2.63;;;;;;;22.72;31.54;104075.72;5061493;28;20044;-60
2023/01/24 11:45:50;;;;;;;2.55;2.35;;;;;;;22.80;31.75;104074.16;5060346;28;20475;-62
2023/01/24 11:48:15;;;;;;;;;;;;;;;22.68;31.67;104066.31;5056307;28;20036;-65
2023/01/24 11:50:50;;;;;;;2.60;2.40;;;;;;;22.40;32.33;104073.75;5055768;28;19912;-64
2023/01/24 11:53:35;;;;;;;2.78;2.47;;;;;;;22.37;32.26;104070.50;5024373;28;20040;-65
2023/01/24 11:56:18;;;;;;;2.50;2.30;;;;;;;22.24;32.18;104073.25;5057394;28;20123;-65
2023/01/24 11:59:08;;;;;;;2.78;2.55;;;;;;;22.18;32.29;104068.44;5054241;28;20090;-65
2023/01/24 12:02:21;;;;;;;2.50;2.30;;;;;;;22.26;32.03;104058.06;5059443;28;20639;-65
2023/01/24 12:05:09;;;;;;;2.63;2.42;;;;;;;22.52;31.50;104071.97;5051063;28;20056;-65
2023/01/24 12:07:57;;;;;;;2.50;2.30;;;;;;;22.45;31.60;104065.47;5057374;28;20139;-64
2023/01/24 12:10:32;;;;;;;2.60;2.40;;;;;;;22.39;31.91;104060.59;5047241;28;20470;-65
2023/01/24 12:13:13;;;;;;;2.60;2.40;;;;;;;22.29;32.10;104055.19;5067046;28;20041;-65
2023/01/24 12:16:00;;;;;;;2.85;2.65;;;;;;;22.25;31.96;104053.72;5056645;28;20032;-65